sensor_id;sensor_type;location;lat;lon;timestamp;P1;durP1;ratioP1;P2;durP2;ratioP2
84244;SDS011;74383;44.552;18.100;2024-01-30T00:01:24;106.00;;;49.88;;
84244;SDS011;74383;44.552;18.100;2024-01-30T00:03:50;105.63;;;46.15;;
84244;SDS011;74383;44.552;18.100;2024-01-30T00:06:18;99.18;;;45.85;;
84244;SDS011;74383;44.552;18.100;2024-01-30T00:08:46;106.28;;;49.92;;
84244;SDS011;74383;44.552;18.100;2024-01-30T00:11:14;105.72;;;49.00;;
84244;SDS011;74383;44.552;18.100;2024-01-30T00:13:40;122.63;;;54.22;;
84244;SDS011;74383;44.552;18.100;2024-01-30T00:16:06;130.10;;;56.53;;
84244;SDS011;74383;44.552;18.100;2024-01-30T00:18:32;134.85;;;58.47;;
84244;SDS011;74383;44.552;18.100;2024-01-30T00:20:57;140.40;;;61.10;;
84244;SDS011;74383;44.552;18.100;2024-01-30T00:23:23;129.00;;;56.15;;
84244;SDS011;74383;44.552;18.100;2024-01-30T00:25:49;95.35;;;45.65;;
84244;SDS011;74383;44.552;18.100;2024-01-30T00:28:15;96.22;;;41.65;;
84244;SDS011;74383;44.552;18.100;2024-01-30T00:30:41;98.50;;;43.03;;
84244;SDS011;74383;44.552;18.100;2024-01-30T00:33:06;79.68;;;38.97;;
84244;SDS011;74383;44.552;18.100;2024-01-30T00:35:33;84.43;;;38.97;;
84244;SDS011;74383;44.552;18.100;2024-01-30T00:37:58;85.60;;;40.15;;
84244;SDS011;74383;44.552;18.100;2024-01-30T00:40:24;84.75;;;37.70;;
84244;SDS011;74383;44.552;18.100;2024-01-30T00:42:50;82.95;;;37.75;;
84244;SDS011;74383;44.552;18.100;2024-01-30T00:45:15;85.53;;;40.65;;
84244;SDS011;74383;44.552;18.100;2024-01-30T00:47:42;82.68;;;39.08;;
84244;SDS011;74383;44.552;18.100;2024-01-30T00:50:08;86.40;;;39.78;;
84244;SDS011;74383;44.552;18.100;2024-01-30T00:52:33;83.10;;;37.85;;
84244;SDS011;74383;44.552;18.100;2024-01-30T00:55:00;95.20;;;42.13;;
84244;SDS011;74383;44.552;18.100;2024-01-30T00:57:25;90.63;;;42.30;;
84244;SDS011;74383;44.552;18.100;2024-01-30T00:59:52;92.57;;;41.17;;
84244;SDS011;74383;44.552;18.100;2024-01-30T01:02:17;80.05;;;36.08;;
84244;SDS011;74383;44.552;18.100;2024-01-30T01:04:44;69.70;;;32.17;;
84244;SDS011;74383;44.552;18.100;2024-01-30T01:07:10;65.45;;;30.42;;
84244;SDS011;74383;44.552;18.100;2024-01-30T01:09:36;72.40;;;32.13;;
84244;SDS011;74383;44.552;18.100;2024-01-30T01:12:02;71.25;;;33.50;;
84244;SDS011;74383;44.552;18.100;2024-01-30T01:14:28;89.47;;;38.83;;
84244;SDS011;74383;44.552;18.100;2024-01-30T01:16:54;74.43;;;34.85;;
84244;SDS011;74383;44.552;18.100;2024-01-30T01:19:19;78.10;;;34.90;;
84244;SDS011;74383;44.552;18.100;2024-01-30T01:21:45;86.90;;;34.47;;
84244;SDS011;74383;44.552;18.100;2024-01-30T01:24:11;99.45;;;39.08;;
84244;SDS011;74383;44.552;18.100;2024-01-30T01:26:36;91.78;;;39.03;;
84244;SDS011;74383;44.552;18.100;2024-01-30T01:29:02;80.78;;;35.63;;
84244;SDS011;74383;44.552;18.100;2024-01-30T01:31:35;79.13;;;33.72;;
84244;SDS011;74383;44.552;18.100;2024-01-30T01:34:05;93.60;;;37.95;;
84244;SDS011;74383;44.552;18.100;2024-01-30T01:36:31;91.57;;;38.20;;
84244;SDS011;74383;44.552;18.100;2024-01-30T01:38:57;97.68;;;39.05;;
84244;SDS011;74383;44.552;18.100;2024-01-30T01:41:22;93.35;;;38.53;;
84244;SDS011;74383;44.552;18.100;2024-01-30T01:43:48;116.20;;;48.95;;
84244;SDS011;74383;44.552;18.100;2024-01-30T01:46:13;132.00;;;49.53;;
84244;SDS011;74383;44.552;18.100;2024-01-30T01:48:39;111.43;;;46.50;;
84244;SDS011;74383;44.552;18.100;2024-01-30T01:51:06;108.97;;;42.53;;
84244;SDS011;74383;44.552;18.100;2024-01-30T01:53:32;101.60;;;42.50;;
84244;SDS011;74383;44.552;18.100;2024-01-30T01:55:57;118.22;;;45.45;;
84244;SDS011;74383;44.552;18.100;2024-01-30T01:58:23;118.75;;;46.75;;
84244;SDS011;74383;44.552;18.100;2024-01-30T02:00:54;121.82;;;47.08;;
84244;SDS011;74383;44.552;18.100;2024-01-30T02:03:21;119.38;;;45.15;;
84244;SDS011;74383;44.552;18.100;2024-01-30T02:05:47;98.07;;;39.28;;
84244;SDS011;74383;44.552;18.100;2024-01-30T02:08:13;87.55;;;38.20;;
84244;SDS011;74383;44.552;18.100;2024-01-30T02:10:38;91.05;;;37.15;;
84244;SDS011;74383;44.552;18.100;2024-01-30T02:13:04;83.25;;;36.03;;
84244;SDS011;74383;44.552;18.100;2024-01-30T02:15:30;102.07;;;38.80;;
84244;SDS011;74383;44.552;18.100;2024-01-30T02:17:55;125.18;;;47.03;;
84244;SDS011;74383;44.552;18.100;2024-01-30T02:20:21;111.97;;;42.97;;
84244;SDS011;74383;44.552;18.100;2024-01-30T02:22:50;105.53;;;43.50;;
84244;SDS011;74383;44.552;18.100;2024-01-30T02:25:19;100.07;;;41.38;;
84244;SDS011;74383;44.552;18.100;2024-01-30T02:27:45;103.90;;;41.40;;
84244;SDS011;74383;44.552;18.100;2024-01-30T02:30:10;96.45;;;40.35;;
84244;SDS011;74383;44.552;18.100;2024-01-30T02:32:38;94.28;;;38.30;;
84244;SDS011;74383;44.552;18.100;2024-01-30T02:35:03;83.93;;;35.67;;
84244;SDS011;74383;44.552;18.100;2024-01-30T02:37:29;74.38;;;34.45;;
84244;SDS011;74383;44.552;18.100;2024-01-30T02:39:55;88.25;;;35.58;;
84244;SDS011;74383;44.552;18.100;2024-01-30T02:42:20;95.22;;;37.95;;
84244;SDS011;74383;44.552;18.100;2024-01-30T02:44:46;90.35;;;39.58;;
84244;SDS011;74383;44.552;18.100;2024-01-30T02:47:11;93.40;;;38.42;;
84244;SDS011;74383;44.552;18.100;2024-01-30T02:49:37;83.35;;;36.83;;
84244;SDS011;74383;44.552;18.100;2024-01-30T02:52:03;92.28;;;37.78;;
84244;SDS011;74383;44.552;18.100;2024-01-30T02:54:28;94.57;;;40.03;;
84244;SDS011;74383;44.552;18.100;2024-01-30T02:56:55;93.32;;;37.78;;
84244;SDS011;74383;44.552;18.100;2024-01-30T02:59:21;87.38;;;39.78;;
84244;SDS011;74383;44.552;18.100;2024-01-30T03:01:47;101.63;;;40.65;;
84244;SDS011;74383;44.552;18.100;2024-01-30T03:04:13;116.38;;;42.22;;
84244;SDS011;74383;44.552;18.100;2024-01-30T03:06:38;114.60;;;41.33;;
84244;SDS011;74383;44.552;18.100;2024-01-30T03:09:04;120.70;;;45.05;;
84244;SDS011;74383;44.552;18.100;2024-01-30T03:11:30;124.60;;;45.63;;
84244;SDS011;74383;44.552;18.100;2024-01-30T03:13:56;118.07;;;44.85;;
84244;SDS011;74383;44.552;18.100;2024-01-30T03:16:21;116.18;;;47.42;;
84244;SDS011;74383;44.552;18.100;2024-01-30T03:18:47;112.43;;;44.63;;
84244;SDS011;74383;44.552;18.100;2024-01-30T03:21:13;119.07;;;45.70;;
84244;SDS011;74383;44.552;18.100;2024-01-30T03:23:39;117.50;;;44.88;;
84244;SDS011;74383;44.552;18.100;2024-01-30T03:26:05;105.13;;;42.88;;
84244;SDS011;74383;44.552;18.100;2024-01-30T03:28:31;97.18;;;41.40;;
84244;SDS011;74383;44.552;18.100;2024-01-30T03:30:57;106.38;;;41.30;;
84244;SDS011;74383;44.552;18.100;2024-01-30T03:33:23;102.35;;;41.83;;
84244;SDS011;74383;44.552;18.100;2024-01-30T03:35:48;103.30;;;42.83;;
84244;SDS011;74383;44.552;18.100;2024-01-30T03:38:14;103.75;;;42.22;;
84244;SDS011;74383;44.552;18.100;2024-01-30T03:40:39;112.13;;;42.72;;
84244;SDS011;74383;44.552;18.100;2024-01-30T03:43:05;115.85;;;43.78;;
84244;SDS011;74383;44.552;18.100;2024-01-30T03:45:31;118.60;;;44.10;;
84244;SDS011;74383;44.552;18.100;2024-01-30T03:47:56;124.68;;;48.00;;
84244;SDS011;74383;44.552;18.100;2024-01-30T03:50:22;130.73;;;48.75;;
84244;SDS011;74383;44.552;18.100;2024-01-30T03:52:47;119.22;;;46.92;;
84244;SDS011;74383;44.552;18.100;2024-01-30T03:55:13;120.00;;;44.35;;
84244;SDS011;74383;44.552;18.100;2024-01-30T03:57:39;121.25;;;44.22;;
84244;SDS011;74383;44.552;18.100;2024-01-30T04:00:04;119.20;;;46.83;;
84244;SDS011;74383;44.552;18.100;2024-01-30T04:02:37;112.78;;;44.97;;
84244;SDS011;74383;44.552;18.100;2024-01-30T04:05:03;102.82;;;44.13;;
84244;SDS011;74383;44.552;18.100;2024-01-30T04:07:28;103.00;;;43.92;;
84244;SDS011;74383;44.552;18.100;2024-01-30T04:09:54;116.10;;;46.83;;
84244;SDS011;74383;44.552;18.100;2024-01-30T04:12:20;113.93;;;47.53;;
84244;SDS011;74383;44.552;18.100;2024-01-30T04:14:45;117.20;;;47.50;;
84244;SDS011;74383;44.552;18.100;2024-01-30T04:17:11;129.48;;;56.90;;
84244;SDS011;74383;44.552;18.100;2024-01-30T04:19:37;121.25;;;49.30;;
84244;SDS011;74383;44.552;18.100;2024-01-30T04:22:03;108.50;;;46.38;;
84244;SDS011;74383;44.552;18.100;2024-01-30T04:24:29;119.53;;;48.47;;
84244;SDS011;74383;44.552;18.100;2024-01-30T04:26:54;136.52;;;56.15;;
84244;SDS011;74383;44.552;18.100;2024-01-30T04:29:20;155.20;;;62.25;;
84244;SDS011;74383;44.552;18.100;2024-01-30T04:31:47;136.63;;;54.10;;
84244;SDS011;74383;44.552;18.100;2024-01-30T04:34:13;124.78;;;48.75;;
84244;SDS011;74383;44.552;18.100;2024-01-30T04:36:38;111.38;;;46.70;;
84244;SDS011;74383;44.552;18.100;2024-01-30T04:39:04;119.70;;;47.88;;
84244;SDS011;74383;44.552;18.100;2024-01-30T04:41:29;110.05;;;43.67;;
84244;SDS011;74383;44.552;18.100;2024-01-30T04:43:57;104.55;;;41.88;;
84244;SDS011;74383;44.552;18.100;2024-01-30T04:46:23;115.30;;;44.85;;
84244;SDS011;74383;44.552;18.100;2024-01-30T04:48:48;106.40;;;45.60;;
84244;SDS011;74383;44.552;18.100;2024-01-30T04:51:14;103.80;;;43.65;;
84244;SDS011;74383;44.552;18.100;2024-01-30T04:53:39;114.18;;;47.75;;
84244;SDS011;74383;44.552;18.100;2024-01-30T04:56:05;100.75;;;46.25;;
84244;SDS011;74383;44.552;18.100;2024-01-30T04:58:31;97.35;;;41.58;;
84244;SDS011;74383;44.552;18.100;2024-01-30T05:00:57;80.57;;;36.75;;
84244;SDS011;74383;44.552;18.100;2024-01-30T05:03:22;79.65;;;34.90;;
84244;SDS011;74383;44.552;18.100;2024-01-30T05:05:49;92.30;;;38.85;;
84244;SDS011;74383;44.552;18.100;2024-01-30T05:08:15;99.05;;;40.20;;
84244;SDS011;74383;44.552;18.100;2024-01-30T05:10:40;84.32;;;38.90;;
84244;SDS011;74383;44.552;18.100;2024-01-30T05:13:06;104.03;;;44.72;;
84244;SDS011;74383;44.552;18.100;2024-01-30T05:15:32;107.45;;;44.95;;
84244;SDS011;74383;44.552;18.100;2024-01-30T05:17:57;105.20;;;43.92;;
84244;SDS011;74383;44.552;18.100;2024-01-30T05:20:23;106.97;;;44.50;;
84244;SDS011;74383;44.552;18.100;2024-01-30T05:22:48;110.63;;;50.17;;
84244;SDS011;74383;44.552;18.100;2024-01-30T05:25:14;118.13;;;48.92;;
84244;SDS011;74383;44.552;18.100;2024-01-30T05:27:40;158.90;;;73.70;;
84244;SDS011;74383;44.552;18.100;2024-01-30T05:30:06;112.57;;;46.13;;
84244;SDS011;74383;44.552;18.100;2024-01-30T05:32:32;95.68;;;38.70;;
84244;SDS011;74383;44.552;18.100;2024-01-30T05:34:57;106.88;;;44.13;;
84244;SDS011;74383;44.552;18.100;2024-01-30T05:37:23;100.38;;;41.20;;
84244;SDS011;74383;44.552;18.100;2024-01-30T05:39:48;102.05;;;41.65;;
84244;SDS011;74383;44.552;18.100;2024-01-30T05:42:14;101.88;;;44.00;;
84244;SDS011;74383;44.552;18.100;2024-01-30T05:44:42;95.03;;;44.00;;
84244;SDS011;74383;44.552;18.100;2024-01-30T05:47:08;108.22;;;46.85;;
84244;SDS011;74383;44.552;18.100;2024-01-30T05:49:33;129.10;;;47.28;;
84244;SDS011;74383;44.552;18.100;2024-01-30T05:52:00;400.80;;;125.20;;
84244;SDS011;74383;44.552;18.100;2024-01-30T05:54:27;98.95;;;42.45;;
84244;SDS011;74383;44.552;18.100;2024-01-30T05:56:52;91.05;;;39.03;;
84244;SDS011;74383;44.552;18.100;2024-01-30T05:59:18;93.22;;;37.90;;
84244;SDS011;74383;44.552;18.100;2024-01-30T06:01:47;102.63;;;39.85;;
84244;SDS011;74383;44.552;18.100;2024-01-30T06:04:14;112.00;;;42.70;;
84244;SDS011;74383;44.552;18.100;2024-01-30T06:06:40;109.95;;;42.85;;
84244;SDS011;74383;44.552;18.100;2024-01-30T06:09:06;114.20;;;42.40;;
84244;SDS011;74383;44.552;18.100;2024-01-30T06:11:34;97.65;;;39.20;;
84244;SDS011;74383;44.552;18.100;2024-01-30T06:14:00;110.25;;;40.80;;
84244;SDS011;74383;44.552;18.100;2024-01-30T06:16:26;104.53;;;42.22;;
84244;SDS011;74383;44.552;18.100;2024-01-30T06:18:55;105.20;;;39.22;;
84244;SDS011;74383;44.552;18.100;2024-01-30T06:21:21;104.30;;;39.92;;
84244;SDS011;74383;44.552;18.100;2024-01-30T06:23:46;94.85;;;39.00;;
84244;SDS011;74383;44.552;18.100;2024-01-30T06:26:12;94.03;;;39.70;;
84244;SDS011;74383;44.552;18.100;2024-01-30T06:28:38;101.45;;;41.67;;
84244;SDS011;74383;44.552;18.100;2024-01-30T06:31:03;93.13;;;39.08;;
84244;SDS011;74383;44.552;18.100;2024-01-30T06:33:29;99.60;;;41.80;;
84244;SDS011;74383;44.552;18.100;2024-01-30T06:35:55;102.63;;;41.92;;
84244;SDS011;74383;44.552;18.100;2024-01-30T06:38:21;109.70;;;41.05;;
84244;SDS011;74383;44.552;18.100;2024-01-30T06:40:46;102.70;;;43.45;;
84244;SDS011;74383;44.552;18.100;2024-01-30T06:43:12;115.43;;;44.53;;
84244;SDS011;74383;44.552;18.100;2024-01-30T06:45:37;114.78;;;45.83;;
84244;SDS011;74383;44.552;18.100;2024-01-30T06:48:03;109.55;;;45.47;;
84244;SDS011;74383;44.552;18.100;2024-01-30T06:50:29;118.45;;;47.40;;
84244;SDS011;74383;44.552;18.100;2024-01-30T06:52:55;115.40;;;47.08;;
84244;SDS011;74383;44.552;18.100;2024-01-30T06:55:20;126.07;;;48.38;;
84244;SDS011;74383;44.552;18.100;2024-01-30T06:57:46;117.18;;;45.53;;
84244;SDS011;74383;44.552;18.100;2024-01-30T07:00:12;118.40;;;44.03;;
84244;SDS011;74383;44.552;18.100;2024-01-30T07:02:38;114.25;;;43.80;;
84244;SDS011;74383;44.552;18.100;2024-01-30T07:05:04;124.65;;;48.67;;
84244;SDS011;74383;44.552;18.100;2024-01-30T07:07:30;113.60;;;47.15;;
84244;SDS011;74383;44.552;18.100;2024-01-30T07:09:55;116.38;;;45.38;;
84244;SDS011;74383;44.552;18.100;2024-01-30T07:12:22;118.25;;;44.08;;
84244;SDS011;74383;44.552;18.100;2024-01-30T07:14:49;118.85;;;44.45;;
84244;SDS011;74383;44.552;18.100;2024-01-30T07:17:15;113.95;;;42.20;;
84244;SDS011;74383;44.552;18.100;2024-01-30T07:19:41;102.05;;;40.92;;
84244;SDS011;74383;44.552;18.100;2024-01-30T07:22:07;110.03;;;46.42;;
84244;SDS011;74383;44.552;18.100;2024-01-30T07:24:33;92.43;;;40.60;;
84244;SDS011;74383;44.552;18.100;2024-01-30T07:26:59;142.98;;;59.25;;
84244;SDS011;74383;44.552;18.100;2024-01-30T07:29:25;136.20;;;57.47;;
84244;SDS011;74383;44.552;18.100;2024-01-30T07:31:50;130.18;;;57.15;;
84244;SDS011;74383;44.552;18.100;2024-01-30T07:34:16;142.40;;;60.95;;
84244;SDS011;74383;44.552;18.100;2024-01-30T07:36:42;143.10;;;58.83;;
84244;SDS011;74383;44.552;18.100;2024-01-30T07:39:07;165.98;;;72.03;;
84244;SDS011;74383;44.552;18.100;2024-01-30T07:41:33;157.85;;;68.07;;
84244;SDS011;74383;44.552;18.100;2024-01-30T07:43:59;186.25;;;78.22;;
84244;SDS011;74383;44.552;18.100;2024-01-30T07:46:25;183.98;;;80.72;;
84244;SDS011;74383;44.552;18.100;2024-01-30T07:48:50;182.10;;;77.65;;
84244;SDS011;74383;44.552;18.100;2024-01-30T07:51:16;147.18;;;66.95;;
84244;SDS011;74383;44.552;18.100;2024-01-30T07:53:41;145.57;;;58.15;;
84244;SDS011;74383;44.552;18.100;2024-01-30T07:56:07;130.90;;;57.30;;
84244;SDS011;74383;44.552;18.100;2024-01-30T07:58:32;178.15;;;78.35;;
84244;SDS011;74383;44.552;18.100;2024-01-30T08:00:58;140.52;;;62.25;;
84244;SDS011;74383;44.552;18.100;2024-01-30T08:03:25;144.15;;;65.18;;
84244;SDS011;74383;44.552;18.100;2024-01-30T08:05:51;122.57;;;55.58;;
84244;SDS011;74383;44.552;18.100;2024-01-30T08:08:17;132.40;;;59.83;;
84244;SDS011;74383;44.552;18.100;2024-01-30T08:10:43;134.63;;;61.95;;
84244;SDS011;74383;44.552;18.100;2024-01-30T08:13:08;128.50;;;59.42;;
84244;SDS011;74383;44.552;18.100;2024-01-30T08:15:34;131.20;;;61.90;;
84244;SDS011;74383;44.552;18.100;2024-01-30T08:18:25;160.70;;;71.75;;
84244;SDS011;74383;44.552;18.100;2024-01-30T08:20:50;139.48;;;63.38;;
84244;SDS011;74383;44.552;18.100;2024-01-30T08:23:16;139.43;;;58.80;;
84244;SDS011;74383;44.552;18.100;2024-01-30T08:25:41;121.82;;;58.03;;
84244;SDS011;74383;44.552;18.100;2024-01-30T08:28:07;143.32;;;60.50;;
84244;SDS011;74383;44.552;18.100;2024-01-30T08:30:33;137.70;;;60.03;;
84244;SDS011;74383;44.552;18.100;2024-01-30T08:32:58;136.02;;;60.83;;
84244;SDS011;74383;44.552;18.100;2024-01-30T08:35:24;170.30;;;68.38;;
84244;SDS011;74383;44.552;18.100;2024-01-30T08:37:50;152.05;;;65.95;;
84244;SDS011;74383;44.552;18.100;2024-01-30T08:40:15;150.15;;;68.22;;
84244;SDS011;74383;44.552;18.100;2024-01-30T08:42:41;157.80;;;65.00;;
84244;SDS011;74383;44.552;18.100;2024-01-30T08:45:07;161.98;;;68.40;;
84244;SDS011;74383;44.552;18.100;2024-01-30T08:47:33;160.20;;;68.05;;
84244;SDS011;74383;44.552;18.100;2024-01-30T08:49:59;155.10;;;64.85;;
84244;SDS011;74383;44.552;18.100;2024-01-30T08:52:30;154.50;;;67.80;;
84244;SDS011;74383;44.552;18.100;2024-01-30T08:54:56;147.60;;;62.20;;
84244;SDS011;74383;44.552;18.100;2024-01-30T08:57:21;142.98;;;65.05;;
84244;SDS011;74383;44.552;18.100;2024-01-30T08:59:47;136.68;;;60.58;;
84244;SDS011;74383;44.552;18.100;2024-01-30T09:02:13;156.45;;;70.75;;
84244;SDS011;74383;44.552;18.100;2024-01-30T09:04:41;138.77;;;68.65;;
84244;SDS011;74383;44.552;18.100;2024-01-30T09:07:08;143.07;;;64.47;;
84244;SDS011;74383;44.552;18.100;2024-01-30T09:09:34;137.60;;;65.57;;
84244;SDS011;74383;44.552;18.100;2024-01-30T09:12:00;103.13;;;49.30;;
84244;SDS011;74383;44.552;18.100;2024-01-30T09:14:29;123.85;;;56.50;;
84244;SDS011;74383;44.552;18.100;2024-01-30T09:16:56;120.30;;;56.75;;
84244;SDS011;74383;44.552;18.100;2024-01-30T09:19:21;119.60;;;56.38;;
84244;SDS011;74383;44.552;18.100;2024-01-30T09:21:47;122.22;;;55.60;;
84244;SDS011;74383;44.552;18.100;2024-01-30T09:24:12;123.75;;;59.40;;
84244;SDS011;74383;44.552;18.100;2024-01-30T09:26:38;129.82;;;61.90;;
84244;SDS011;74383;44.552;18.100;2024-01-30T09:29:04;233.35;;;107.38;;
84244;SDS011;74383;44.552;18.100;2024-01-30T09:31:29;249.25;;;112.35;;
84244;SDS011;74383;44.552;18.100;2024-01-30T09:33:55;163.90;;;81.45;;
84244;SDS011;74383;44.552;18.100;2024-01-30T09:36:20;154.30;;;66.32;;
84244;SDS011;74383;44.552;18.100;2024-01-30T09:38:47;172.77;;;72.25;;
84244;SDS011;74383;44.552;18.100;2024-01-30T09:41:12;123.75;;;60.90;;
84244;SDS011;74383;44.552;18.100;2024-01-30T09:43:38;213.40;;;115.68;;
84244;SDS011;74383;44.552;18.100;2024-01-30T09:46:05;314.80;;;168.40;;
84244;SDS011;74383;44.552;18.100;2024-01-30T09:48:32;146.15;;;69.85;;
84244;SDS011;74383;44.552;18.100;2024-01-30T09:50:58;122.57;;;57.22;;
84244;SDS011;74383;44.552;18.100;2024-01-30T09:53:24;119.22;;;57.03;;
84244;SDS011;74383;44.552;18.100;2024-01-30T09:55:51;103.43;;;49.28;;
84244;SDS011;74383;44.552;18.100;2024-01-30T09:58:16;97.35;;;50.35;;
84244;SDS011;74383;44.552;18.100;2024-01-30T10:00:42;117.53;;;61.00;;
84244;SDS011;74383;44.552;18.100;2024-01-30T10:03:08;109.45;;;53.50;;
84244;SDS011;74383;44.552;18.100;2024-01-30T10:05:35;106.32;;;53.47;;
84244;SDS011;74383;44.552;18.100;2024-01-30T10:08:05;133.57;;;66.00;;
84244;SDS011;74383;44.552;18.100;2024-01-30T10:10:35;89.87;;;46.13;;
84244;SDS011;74383;44.552;18.100;2024-01-30T10:13:01;136.60;;;64.68;;
84244;SDS011;74383;44.552;18.100;2024-01-30T10:15:28;130.98;;;63.40;;
84244;SDS011;74383;44.552;18.100;2024-01-30T10:17:54;144.10;;;65.80;;
84244;SDS011;74383;44.552;18.100;2024-01-30T10:20:19;112.35;;;56.67;;
84244;SDS011;74383;44.552;18.100;2024-01-30T10:22:47;131.00;;;65.68;;
84244;SDS011;74383;44.552;18.100;2024-01-30T10:25:14;110.90;;;55.70;;
84244;SDS011;74383;44.552;18.100;2024-01-30T10:27:40;131.75;;;65.90;;
84244;SDS011;74383;44.552;18.100;2024-01-30T10:30:07;90.80;;;49.78;;
84244;SDS011;74383;44.552;18.100;2024-01-30T10:32:33;98.03;;;51.92;;
84244;SDS011;74383;44.552;18.100;2024-01-30T10:34:58;63.33;;;34.20;;
84244;SDS011;74383;44.552;18.100;2024-01-30T10:37:25;51.05;;;26.60;;
84244;SDS011;74383;44.552;18.100;2024-01-30T10:39:51;39.95;;;22.60;;
84244;SDS011;74383;44.552;18.100;2024-01-30T10:42:20;35.40;;;18.42;;
84244;SDS011;74383;44.552;18.100;2024-01-30T10:44:59;34.40;;;20.10;;
84244;SDS011;74383;44.552;18.100;2024-01-30T10:47:29;36.75;;;20.23;;
84244;SDS011;74383;44.552;18.100;2024-01-30T10:49:55;35.22;;;19.58;;
84244;SDS011;74383;44.552;18.100;2024-01-30T10:52:22;36.78;;;20.20;;
84244;SDS011;74383;44.552;18.100;2024-01-30T10:54:53;41.15;;;21.13;;
84244;SDS011;74383;44.552;18.100;2024-01-30T10:57:20;37.15;;;18.10;;
84244;SDS011;74383;44.552;18.100;2024-01-30T10:59:48;36.53;;;20.02;;
84244;SDS011;74383;44.552;18.100;2024-01-30T11:02:16;33.28;;;18.88;;
84244;SDS011;74383;44.552;18.100;2024-01-30T11:04:42;34.15;;;17.98;;
84244;SDS011;74383;44.552;18.100;2024-01-30T11:07:15;35.33;;;18.40;;
84244;SDS011;74383;44.552;18.100;2024-01-30T11:09:50;28.80;;;15.05;;
84244;SDS011;74383;44.552;18.100;2024-01-30T11:12:16;24.67;;;14.02;;
84244;SDS011;74383;44.552;18.100;2024-01-30T11:14:47;26.40;;;13.55;;
84244;SDS011;74383;44.552;18.100;2024-01-30T11:17:12;25.92;;;12.95;;
84244;SDS011;74383;44.552;18.100;2024-01-30T11:19:38;26.63;;;12.43;;
84244;SDS011;74383;44.552;18.100;2024-01-30T11:22:06;23.38;;;11.63;;
84244;SDS011;74383;44.552;18.100;2024-01-30T11:24:36;25.02;;;11.98;;
84244;SDS011;74383;44.552;18.100;2024-01-30T11:27:07;21.43;;;11.57;;
84244;SDS011;74383;44.552;18.100;2024-01-30T11:29:34;20.08;;;11.43;;
84244;SDS011;74383;44.552;18.100;2024-01-30T11:32:00;25.50;;;13.75;;
84244;SDS011;74383;44.552;18.100;2024-01-30T11:34:26;26.38;;;16.00;;
84244;SDS011;74383;44.552;18.100;2024-01-30T11:36:52;24.05;;;12.93;;
84244;SDS011;74383;44.552;18.100;2024-01-30T11:39:26;16.70;;;10.25;;
84244;SDS011;74383;44.552;18.100;2024-01-30T11:41:52;16.85;;;10.63;;
84244;SDS011;74383;44.552;18.100;2024-01-30T11:44:19;20.05;;;11.57;;
84244;SDS011;74383;44.552;18.100;2024-01-30T11:46:49;20.30;;;10.88;;
84244;SDS011;74383;44.552;18.100;2024-01-30T11:49:16;19.20;;;11.32;;
84244;SDS011;74383;44.552;18.100;2024-01-30T11:51:42;18.13;;;10.82;;
84244;SDS011;74383;44.552;18.100;2024-01-30T11:54:08;18.25;;;11.32;;
84244;SDS011;74383;44.552;18.100;2024-01-30T11:56:34;19.98;;;11.48;;
84244;SDS011;74383;44.552;18.100;2024-01-30T11:59:00;20.90;;;13.30;;
84244;SDS011;74383;44.552;18.100;2024-01-30T12:01:26;19.00;;;10.82;;
84244;SDS011;74383;44.552;18.100;2024-01-30T12:03:52;18.50;;;10.52;;
84244;SDS011;74383;44.552;18.100;2024-01-30T12:06:18;18.48;;;11.85;;
84244;SDS011;74383;44.552;18.100;2024-01-30T12:08:55;16.63;;;10.90;;
84244;SDS011;74383;44.552;18.100;2024-01-30T12:11:30;16.42;;;9.50;;
84244;SDS011;74383;44.552;18.100;2024-01-30T12:13:56;17.10;;;10.68;;
84244;SDS011;74383;44.552;18.100;2024-01-30T12:16:21;21.60;;;11.25;;
84244;SDS011;74383;44.552;18.100;2024-01-30T12:18:48;20.42;;;10.35;;
84244;SDS011;74383;44.552;18.100;2024-01-30T12:21:16;17.85;;;11.27;;
84244;SDS011;74383;44.552;18.100;2024-01-30T12:23:43;16.48;;;9.57;;
84244;SDS011;74383;44.552;18.100;2024-01-30T12:26:08;18.63;;;10.77;;
84244;SDS011;74383;44.552;18.100;2024-01-30T12:28:35;16.98;;;10.85;;
84244;SDS011;74383;44.552;18.100;2024-01-30T12:31:04;19.33;;;11.35;;
84244;SDS011;74383;44.552;18.100;2024-01-30T12:33:30;20.77;;;12.70;;
84244;SDS011;74383;44.552;18.100;2024-01-30T12:35:56;18.77;;;11.63;;
84244;SDS011;74383;44.552;18.100;2024-01-30T12:38:23;17.73;;;9.70;;
84244;SDS011;74383;44.552;18.100;2024-01-30T12:40:50;15.82;;;8.75;;
84244;SDS011;74383;44.552;18.100;2024-01-30T12:43:19;13.20;;;9.07;;
84244;SDS011;74383;44.552;18.100;2024-01-30T12:45:45;16.58;;;9.52;;
84244;SDS011;74383;44.552;18.100;2024-01-30T12:48:12;14.82;;;9.40;;
84244;SDS011;74383;44.552;18.100;2024-01-30T12:50:37;15.63;;;8.95;;
84244;SDS011;74383;44.552;18.100;2024-01-30T12:53:03;13.77;;;9.48;;
84244;SDS011;74383;44.552;18.100;2024-01-30T12:55:29;12.48;;;8.45;;
84244;SDS011;74383;44.552;18.100;2024-01-30T12:57:55;17.25;;;9.18;;
84244;SDS011;74383;44.552;18.100;2024-01-30T13:00:21;13.77;;;9.43;;
84244;SDS011;74383;44.552;18.100;2024-01-30T13:02:47;14.57;;;9.55;;
84244;SDS011;74383;44.552;18.100;2024-01-30T13:05:13;13.38;;;9.05;;
84244;SDS011;74383;44.552;18.100;2024-01-30T13:07:39;16.30;;;10.10;;
84244;SDS011;74383;44.552;18.100;2024-01-30T13:10:05;14.50;;;9.93;;
84244;SDS011;74383;44.552;18.100;2024-01-30T13:12:31;14.13;;;9.65;;
84244;SDS011;74383;44.552;18.100;2024-01-30T13:14:58;16.30;;;10.63;;
84244;SDS011;74383;44.552;18.100;2024-01-30T13:17:26;16.70;;;10.88;;
84244;SDS011;74383;44.552;18.100;2024-01-30T13:19:51;16.17;;;10.55;;
84244;SDS011;74383;44.552;18.100;2024-01-30T13:22:17;13.60;;;9.60;;
84244;SDS011;74383;44.552;18.100;2024-01-30T13:24:42;16.92;;;10.90;;
84244;SDS011;74383;44.552;18.100;2024-01-30T13:27:08;16.17;;;11.20;;
84244;SDS011;74383;44.552;18.100;2024-01-30T13:29:34;17.75;;;10.23;;
84244;SDS011;74383;44.552;18.100;2024-01-30T13:31:59;16.83;;;11.07;;
84244;SDS011;74383;44.552;18.100;2024-01-30T13:34:25;14.77;;;9.73;;
84244;SDS011;74383;44.552;18.100;2024-01-30T13:36:50;13.60;;;9.15;;
84244;SDS011;74383;44.552;18.100;2024-01-30T13:39:17;14.43;;;8.93;;
84244;SDS011;74383;44.552;18.100;2024-01-30T13:41:42;12.15;;;8.75;;
84244;SDS011;74383;44.552;18.100;2024-01-30T13:44:08;12.63;;;8.60;;
84244;SDS011;74383;44.552;18.100;2024-01-30T13:46:34;14.20;;;9.00;;
84244;SDS011;74383;44.552;18.100;2024-01-30T13:49:01;13.57;;;9.07;;
84244;SDS011;74383;44.552;18.100;2024-01-30T13:51:27;14.85;;;9.38;;
84244;SDS011;74383;44.552;18.100;2024-01-30T13:53:53;13.85;;;9.15;;
84244;SDS011;74383;44.552;18.100;2024-01-30T13:56:21;18.70;;;9.93;;
84244;SDS011;74383;44.552;18.100;2024-01-30T13:58:50;16.58;;;9.13;;